sensor_id;sensor_type;location;lat;lon;timestamp;P1;durP1;ratioP1;P2;durP2;ratioP2
47812;SDS011;34221;45.296;9.516;2023-01-15T00:00:08;61.00;;;45.08;;
47812;SDS011;34221;45.296;9.516;2023-01-15T00:00:24;58.65;;;44.53;;
47812;SDS011;34221;45.296;9.516;2023-01-15T00:00:39;57.95;;;45.65;;
47812;SDS011;34221;45.296;9.516;2023-01-15T00:00:54;62.42;;;47.00;;
47812;SDS011;34221;45.296;9.516;2023-01-15T00:01:20;67.95;;;47.40;;
47812;SDS011;34221;45.296;9.516;2023-01-15T00:01:41;60.80;;;46.78;;
47812;SDS011;34221;45.296;9.516;2023-01-15T00:01:56;60.88;;;47.15;;
47812;SDS011;34221;45.296;9.516;2023-01-15T00:02:11;56.55;;;44.95;;
47812;SDS011;34221;45.296;9.516;2023-01-15T00:02:30;61.15;;;45.67;;
47812;SDS011;34221;45.296;9.516;2023-01-15T00:02:45;69.20;;;48.67;;
47812;SDS011;34221;45.296;9.516;2023-01-15T00:03:00;68.47;;;49.05;;
47812;SDS011;34221;45.296;9.516;2023-01-15T00:03:15;64.60;;;47.45;;
47812;SDS011;34221;45.296;9.516;2023-01-15T00:03:30;64.35;;;47.20;;
47812;SDS011;34221;45.296;9.516;2023-01-15T00:03:45;63.05;;;46.88;;
47812;SDS011;34221;45.296;9.516;2023-01-15T00:04:01;66.43;;;45.08;;
47812;SDS011;34221;45.296;9.516;2023-01-15T00:04:18;67.50;;;45.20;;
47812;SDS011;34221;45.296;9.516;2023-01-15T00:04:33;61.08;;;45.95;;
47812;SDS011;34221;45.296;9.516;2023-01-15T00:04:51;56.97;;;45.30;;
47812;SDS011;34221;45.296;9.516;2023-01-15T00:05:06;63.80;;;45.78;;
47812;SDS011;34221;45.296;9.516;2023-01-15T00:05:21;65.25;;;45.85;;
47812;SDS011;34221;45.296;9.516;2023-01-15T00:05:36;61.73;;;45.23;;
47812;SDS011;34221;45.296;9.516;2023-01-15T00:05:51;59.35;;;44.17;;
47812;SDS011;34221;45.296;9.516;2023-01-15T00:06:06;58.00;;;44.28;;
47812;SDS011;34221;45.296;9.516;2023-01-15T00:06:22;57.70;;;45.28;;
47812;SDS011;34221;45.296;9.516;2023-01-15T00:06:39;59.53;;;45.67;;
47812;SDS011;34221;45.296;9.516;2023-01-15T00:06:55;61.72;;;45.20;;
47812;SDS011;34221;45.296;9.516;2023-01-15T00:07:10;59.92;;;44.88;;
47812;SDS011;34221;45.296;9.516;2023-01-15T00:07:25;61.35;;;45.92;;
47812;SDS011;34221;45.296;9.516;2023-01-15T00:07:40;63.05;;;47.25;;
47812;SDS011;34221;45.296;9.516;2023-01-15T00:07:57;61.63;;;46.65;;
47812;SDS011;34221;45.296;9.516;2023-01-15T00:08:12;59.53;;;45.53;;
47812;SDS011;34221;45.296;9.516;2023-01-15T00:08:27;60.00;;;45.53;;
47812;SDS011;34221;45.296;9.516;2023-01-15T00:08:42;61.70;;;47.00;;
47812;SDS011;34221;45.296;9.516;2023-01-15T00:08:58;59.97;;;46.58;;
47812;SDS011;34221;45.296;9.516;2023-01-15T00:09:14;63.15;;;45.85;;
47812;SDS011;34221;45.296;9.516;2023-01-15T00:09:29;63.50;;;46.45;;
47812;SDS011;34221;45.296;9.516;2023-01-15T00:09:44;62.60;;;47.47;;
47812;SDS011;34221;45.296;9.516;2023-01-15T00:09:59;59.78;;;44.90;;
47812;SDS011;34221;45.296;9.516;2023-01-15T00:10:14;59.88;;;44.10;;
47812;SDS011;34221;45.296;9.516;2023-01-15T00:10:29;62.65;;;46.60;;
47812;SDS011;34221;45.296;9.516;2023-01-15T00:10:44;62.78;;;47.58;;
47812;SDS011;34221;45.296;9.516;2023-01-15T00:11:01;65.57;;;48.00;;
47812;SDS011;34221;45.296;9.516;2023-01-15T00:11:20;60.53;;;46.05;;
47812;SDS011;34221;45.296;9.516;2023-01-15T00:11:36;63.72;;;46.92;;
47812;SDS011;34221;45.296;9.516;2023-01-15T00:11:51;67.05;;;48.13;;
47812;SDS011;34221;45.296;9.516;2023-01-15T00:12:06;63.25;;;46.85;;
47812;SDS011;34221;45.296;9.516;2023-01-15T00:12:21;61.35;;;46.17;;
47812;SDS011;34221;45.296;9.516;2023-01-15T00:12:36;60.47;;;46.90;;
47812;SDS011;34221;45.296;9.516;2023-01-15T00:12:50;61.17;;;46.80;;
47812;SDS011;34221;45.296;9.516;2023-01-15T00:13:05;59.58;;;46.00;;
47812;SDS011;34221;45.296;9.516;2023-01-15T00:13:20;59.47;;;46.72;;
47812;SDS011;34221;45.296;9.516;2023-01-15T00:13:36;59.15;;;45.83;;
47812;SDS011;34221;45.296;9.516;2023-01-15T00:13:51;57.70;;;44.28;;
47812;SDS011;34221;45.296;9.516;2023-01-15T00:14:06;58.10;;;45.78;;
47812;SDS011;34221;45.296;9.516;2023-01-15T00:14:21;58.00;;;46.88;;
47812;SDS011;34221;45.296;9.516;2023-01-15T00:14:36;57.58;;;45.45;;
47812;SDS011;34221;45.296;9.516;2023-01-15T00:14:50;57.78;;;44.28;;
47812;SDS011;34221;45.296;9.516;2023-01-15T00:15:06;57.50;;;43.25;;
47812;SDS011;34221;45.296;9.516;2023-01-15T00:15:21;59.13;;;44.47;;
47812;SDS011;34221;45.296;9.516;2023-01-15T00:15:36;63.83;;;46.65;;
47812;SDS011;34221;45.296;9.516;2023-01-15T00:15:51;63.30;;;46.63;;
47812;SDS011;34221;45.296;9.516;2023-01-15T00:16:07;61.05;;;45.65;;
47812;SDS011;34221;45.296;9.516;2023-01-15T00:16:28;63.70;;;46.03;;
47812;SDS011;34221;45.296;9.516;2023-01-15T00:16:43;63.65;;;45.92;;
47812;SDS011;34221;45.296;9.516;2023-01-15T00:16:58;64.00;;;45.33;;
47812;SDS011;34221;45.296;9.516;2023-01-15T00:17:13;68.97;;;44.97;;
47812;SDS011;34221;45.296;9.516;2023-01-15T00:17:28;73.47;;;44.15;;
47812;SDS011;34221;45.296;9.516;2023-01-15T00:17:43;65.22;;;43.72;;
47812;SDS011;34221;45.296;9.516;2023-01-15T00:17:58;57.63;;;43.67;;
47812;SDS011;34221;45.296;9.516;2023-01-15T00:18:13;58.97;;;44.67;;
47812;SDS011;34221;45.296;9.516;2023-01-15T00:18:28;60.70;;;45.75;;
47812;SDS011;34221;45.296;9.516;2023-01-15T00:18:43;59.10;;;45.10;;
47812;SDS011;34221;45.296;9.516;2023-01-15T00:19:03;59.10;;;44.30;;
47812;SDS011;34221;45.296;9.516;2023-01-15T00:19:21;56.90;;;44.25;;
47812;SDS011;34221;45.296;9.516;2023-01-15T00:19:36;57.80;;;44.20;;
47812;SDS011;34221;45.296;9.516;2023-01-15T00:19:51;60.43;;;43.47;;
47812;SDS011;34221;45.296;9.516;2023-01-15T00:20:06;61.58;;;42.92;;
47812;SDS011;34221;45.296;9.516;2023-01-15T00:20:21;57.35;;;42.28;;
47812;SDS011;34221;45.296;9.516;2023-01-15T00:20:36;54.33;;;42.38;;
47812;SDS011;34221;45.296;9.516;2023-01-15T00:20:57;56.93;;;43.10;;
47812;SDS011;34221;45.296;9.516;2023-01-15T00:21:14;57.28;;;43.28;;
47812;SDS011;34221;45.296;9.516;2023-01-15T00:21:29;59.25;;;44.38;;
47812;SDS011;34221;45.296;9.516;2023-01-15T00:21:45;58.08;;;42.78;;
47812;SDS011;34221;45.296;9.516;2023-01-15T00:22:00;56.33;;;42.95;;
47812;SDS011;34221;45.296;9.516;2023-01-15T00:22:14;57.53;;;43.30;;
47812;SDS011;34221;45.296;9.516;2023-01-15T00:22:29;60.90;;;43.20;;
47812;SDS011;34221;45.296;9.516;2023-01-15T00:22:44;60.08;;;44.60;;
47812;SDS011;34221;45.296;9.516;2023-01-15T00:22:59;57.83;;;43.63;;
47812;SDS011;34221;45.296;9.516;2023-01-15T00:23:14;58.92;;;43.53;;
47812;SDS011;34221;45.296;9.516;2023-01-15T00:23:49;52.90;;;41.58;;
47812;SDS011;34221;45.296;9.516;2023-01-15T00:24:23;58.55;;;42.80;;
47812;SDS011;34221;45.296;9.516;2023-01-15T00:24:56;61.17;;;44.00;;
47812;SDS011;34221;45.296;9.516;2023-01-15T00:25:30;59.13;;;42.63;;
47812;SDS011;34221;45.296;9.516;2023-01-15T00:26:04;56.83;;;41.30;;
47812;SDS011;34221;45.296;9.516;2023-01-15T00:26:37;54.65;;;41.00;;
47812;SDS011;34221;45.296;9.516;2023-01-15T00:27:11;54.92;;;41.78;;
47812;SDS011;34221;45.296;9.516;2023-01-15T00:27:45;54.47;;;41.15;;
47812;SDS011;34221;45.296;9.516;2023-01-15T00:28:02;55.58;;;42.33;;
47812;SDS011;34221;45.296;9.516;2023-01-15T00:28:17;53.05;;;41.65;;
47812;SDS011;34221;45.296;9.516;2023-01-15T00:28:33;52.30;;;41.15;;
47812;SDS011;34221;45.296;9.516;2023-01-15T00:28:48;53.30;;;41.27;;
47812;SDS011;34221;45.296;9.516;2023-01-15T00:29:04;53.78;;;40.95;;
47812;SDS011;34221;45.296;9.516;2023-01-15T00:29:20;53.03;;;41.38;;
47812;SDS011;34221;45.296;9.516;2023-01-15T00:29:36;52.38;;;40.28;;
47812;SDS011;34221;45.296;9.516;2023-01-15T00:29:51;55.00;;;41.03;;
47812;SDS011;34221;45.296;9.516;2023-01-15T00:30:07;57.05;;;42.30;;
47812;SDS011;34221;45.296;9.516;2023-01-15T00:30:26;56.55;;;43.00;;
47812;SDS011;34221;45.296;9.516;2023-01-15T00:30:41;55.13;;;41.47;;
47812;SDS011;34221;45.296;9.516;2023-01-15T00:30:56;56.30;;;40.40;;
47812;SDS011;34221;45.296;9.516;2023-01-15T00:31:12;54.85;;;41.35;;
47812;SDS011;34221;45.296;9.516;2023-01-15T00:31:27;49.97;;;39.60;;
47812;SDS011;34221;45.296;9.516;2023-01-15T00:31:49;52.53;;;38.97;;
47812;SDS011;34221;45.296;9.516;2023-01-15T00:32:17;59.80;;;43.65;;
47812;SDS011;34221;45.296;9.516;2023-01-15T00:32:32;59.00;;;41.92;;
47812;SDS011;34221;45.296;9.516;2023-01-15T00:32:47;57.13;;;42.05;;
47812;SDS011;34221;45.296;9.516;2023-01-15T00:33:03;53.33;;;41.03;;
47812;SDS011;34221;45.296;9.516;2023-01-15T00:33:18;51.78;;;38.83;;
47812;SDS011;34221;45.296;9.516;2023-01-15T00:33:35;52.85;;;39.95;;
47812;SDS011;34221;45.296;9.516;2023-01-15T00:33:50;55.63;;;41.88;;
47812;SDS011;34221;45.296;9.516;2023-01-15T00:34:05;54.58;;;40.78;;
47812;SDS011;34221;45.296;9.516;2023-01-15T00:34:20;54.50;;;40.42;;
47812;SDS011;34221;45.296;9.516;2023-01-15T00:34:35;55.97;;;40.90;;
47812;SDS011;34221;45.296;9.516;2023-01-15T00:34:50;54.95;;;40.67;;
47812;SDS011;34221;45.296;9.516;2023-01-15T00:35:05;54.45;;;40.53;;
47812;SDS011;34221;45.296;9.516;2023-01-15T00:35:24;50.72;;;38.20;;
47812;SDS011;34221;45.296;9.516;2023-01-15T00:35:39;51.87;;;37.13;;
47812;SDS011;34221;45.296;9.516;2023-01-15T00:35:54;54.90;;;38.88;;
47812;SDS011;34221;45.296;9.516;2023-01-15T00:36:10;54.42;;;40.47;;
47812;SDS011;34221;45.296;9.516;2023-01-15T00:36:25;51.83;;;39.00;;
47812;SDS011;34221;45.296;9.516;2023-01-15T00:36:40;51.72;;;38.38;;
47812;SDS011;34221;45.296;9.516;2023-01-15T00:36:56;52.67;;;38.55;;
47812;SDS011;34221;45.296;9.516;2023-01-15T00:37:12;47.05;;;37.28;;
47812;SDS011;34221;45.296;9.516;2023-01-15T00:37:27;44.20;;;37.47;;
47812;SDS011;34221;45.296;9.516;2023-01-15T00:37:42;48.60;;;38.70;;
47812;SDS011;34221;45.296;9.516;2023-01-15T00:37:58;52.20;;;39.83;;
47812;SDS011;34221;45.296;9.516;2023-01-15T00:38:13;50.97;;;38.97;;
47812;SDS011;34221;45.296;9.516;2023-01-15T00:38:28;50.45;;;38.90;;
47812;SDS011;34221;45.296;9.516;2023-01-15T00:38:43;50.78;;;39.25;;
47812;SDS011;34221;45.296;9.516;2023-01-15T00:38:58;52.00;;;38.97;;
47812;SDS011;34221;45.296;9.516;2023-01-15T00:39:14;54.35;;;39.72;;
47812;SDS011;34221;45.296;9.516;2023-01-15T00:39:28;52.40;;;39.23;;
47812;SDS011;34221;45.296;9.516;2023-01-15T00:39:43;51.60;;;39.03;;
47812;SDS011;34221;45.296;9.516;2023-01-15T00:39:58;55.20;;;39.78;;
47812;SDS011;34221;45.296;9.516;2023-01-15T00:40:14;56.13;;;39.67;;
47812;SDS011;34221;45.296;9.516;2023-01-15T00:40:31;54.13;;;39.00;;
47812;SDS011;34221;45.296;9.516;2023-01-15T00:40:46;51.47;;;38.47;;
47812;SDS011;34221;45.296;9.516;2023-01-15T00:41:06;50.42;;;38.47;;
47812;SDS011;34221;45.296;9.516;2023-01-15T00:41:22;49.92;;;38.60;;
47812;SDS011;34221;45.296;9.516;2023-01-15T00:41:37;49.17;;;38.57;;
47812;SDS011;34221;45.296;9.516;2023-01-15T00:41:52;53.73;;;38.97;;
47812;SDS011;34221;45.296;9.516;2023-01-15T00:42:08;51.75;;;38.05;;
47812;SDS011;34221;45.296;9.516;2023-01-15T00:42:24;49.78;;;37.72;;
47812;SDS011;34221;45.296;9.516;2023-01-15T00:42:39;50.95;;;37.90;;
47812;SDS011;34221;45.296;9.516;2023-01-15T00:42:54;49.85;;;38.53;;
47812;SDS011;34221;45.296;9.516;2023-01-15T00:43:09;52.73;;;38.97;;
47812;SDS011;34221;45.296;9.516;2023-01-15T00:43:25;53.90;;;38.97;;
47812;SDS011;34221;45.296;9.516;2023-01-15T00:43:40;52.40;;;39.53;;
47812;SDS011;34221;45.296;9.516;2023-01-15T00:43:55;48.95;;;38.63;;
47812;SDS011;34221;45.296;9.516;2023-01-15T00:44:10;46.78;;;37.47;;
47812;SDS011;34221;45.296;9.516;2023-01-15T00:44:25;49.42;;;37.97;;
47812;SDS011;34221;45.296;9.516;2023-01-15T00:44:40;50.03;;;38.90;;
47812;SDS011;34221;45.296;9.516;2023-01-15T00:44:55;51.20;;;38.78;;
47812;SDS011;34221;45.296;9.516;2023-01-15T00:45:10;52.20;;;38.50;;
47812;SDS011;34221;45.296;9.516;2023-01-15T00:45:27;48.70;;;37.38;;
47812;SDS011;34221;45.296;9.516;2023-01-15T00:45:41;49.75;;;38.65;;
47812;SDS011;34221;45.296;9.516;2023-01-15T00:45:57;49.95;;;38.83;;
47812;SDS011;34221;45.296;9.516;2023-01-15T00:46:12;50.50;;;37.42;;
47812;SDS011;34221;45.296;9.516;2023-01-15T00:46:27;52.28;;;38.42;;
47812;SDS011;34221;45.296;9.516;2023-01-15T00:46:42;50.58;;;38.83;;
47812;SDS011;34221;45.296;9.516;2023-01-15T00:46:57;48.45;;;37.33;;
47812;SDS011;34221;45.296;9.516;2023-01-15T00:47:12;51.00;;;37.58;;
47812;SDS011;34221;45.296;9.516;2023-01-15T00:47:28;53.65;;;38.83;;
47812;SDS011;34221;45.296;9.516;2023-01-15T00:47:43;51.92;;;38.33;;
47812;SDS011;34221;45.296;9.516;2023-01-15T00:48:01;50.72;;;36.47;;
47812;SDS011;34221;45.296;9.516;2023-01-15T00:48:16;48.38;;;35.67;;
47812;SDS011;34221;45.296;9.516;2023-01-15T00:48:31;50.17;;;37.17;;
47812;SDS011;34221;45.296;9.516;2023-01-15T00:48:45;54.92;;;39.05;;
47812;SDS011;34221;45.296;9.516;2023-01-15T00:49:01;55.35;;;39.67;;
47812;SDS011;34221;45.296;9.516;2023-01-15T00:49:16;55.20;;;39.00;;
47812;SDS011;34221;45.296;9.516;2023-01-15T00:49:31;54.47;;;39.35;;
47812;SDS011;34221;45.296;9.516;2023-01-15T00:49:46;53.13;;;39.90;;
47812;SDS011;34221;45.296;9.516;2023-01-15T00:50:03;54.00;;;40.47;;
47812;SDS011;34221;45.296;9.516;2023-01-15T00:50:20;55.45;;;40.00;;
47812;SDS011;34221;45.296;9.516;2023-01-15T00:50:35;53.25;;;39.13;;
47812;SDS011;34221;45.296;9.516;2023-01-15T00:50:50;51.00;;;39.03;;
47812;SDS011;34221;45.296;9.516;2023-01-15T00:51:05;50.17;;;39.88;;
47812;SDS011;34221;45.296;9.516;2023-01-15T00:51:20;52.53;;;40.35;;
47812;SDS011;34221;45.296;9.516;2023-01-15T00:51:35;51.42;;;38.72;;
47812;SDS011;34221;45.296;9.516;2023-01-15T00:51:50;48.28;;;37.65;;
47812;SDS011;34221;45.296;9.516;2023-01-15T00:52:05;50.17;;;37.65;;
47812;SDS011;34221;45.296;9.516;2023-01-15T00:52:20;52.35;;;38.28;;
47812;SDS011;34221;45.296;9.516;2023-01-15T00:52:36;50.78;;;38.58;;
47812;SDS011;34221;45.296;9.516;2023-01-15T00:52:52;49.65;;;37.95;;
47812;SDS011;34221;45.296;9.516;2023-01-15T00:53:08;50.03;;;36.92;;
47812;SDS011;34221;45.296;9.516;2023-01-15T00:53:23;50.10;;;36.57;;
47812;SDS011;34221;45.296;9.516;2023-01-15T00:53:37;46.40;;;36.70;;
47812;SDS011;34221;45.296;9.516;2023-01-15T00:53:52;48.45;;;37.08;;
47812;SDS011;34221;45.296;9.516;2023-01-15T00:54:07;53.17;;;38.70;;
47812;SDS011;34221;45.296;9.516;2023-01-15T00:54:22;53.42;;;39.83;;
47812;SDS011;34221;45.296;9.516;2023-01-15T00:54:37;55.50;;;39.72;;
47812;SDS011;34221;45.296;9.516;2023-01-15T00:54:52;57.08;;;39.60;;
47812;SDS011;34221;45.296;9.516;2023-01-15T00:55:07;52.05;;;37.03;;
47812;SDS011;34221;45.296;9.516;2023-01-15T00:55:22;47.67;;;35.72;;
47812;SDS011;34221;45.296;9.516;2023-01-15T00:55:38;49.95;;;37.83;;
47812;SDS011;34221;45.296;9.516;2023-01-15T00:55:53;50.25;;;37.47;;
47812;SDS011;34221;45.296;9.516;2023-01-15T00:56:09;52.42;;;37.15;;
47812;SDS011;34221;45.296;9.516;2023-01-15T00:56:24;52.40;;;38.25;;
47812;SDS011;34221;45.296;9.516;2023-01-15T00:56:40;50.63;;;38.00;;
47812;SDS011;34221;45.296;9.516;2023-01-15T00:56:54;50.25;;;38.25;;
47812;SDS011;34221;45.296;9.516;2023-01-15T00:57:09;48.58;;;37.95;;
47812;SDS011;34221;45.296;9.516;2023-01-15T00:57:24;48.90;;;37.47;;
47812;SDS011;34221;45.296;9.516;2023-01-15T00:57:39;48.70;;;36.97;;
47812;SDS011;34221;45.296;9.516;2023-01-15T00:57:54;46.45;;;35.33;;
47812;SDS011;34221;45.296;9.516;2023-01-15T00:58:09;46.63;;;35.35;;
47812;SDS011;34221;45.296;9.516;2023-01-15T00:58:24;51.25;;;36.47;;
47812;SDS011;34221;45.296;9.516;2023-01-15T00:58:39;50.90;;;36.78;;
47812;SDS011;34221;45.296;9.516;2023-01-15T00:58:54;48.30;;;36.15;;
47812;SDS011;34221;45.296;9.516;2023-01-15T00:59:09;47.53;;;34.97;;
47812;SDS011;34221;45.296;9.516;2023-01-15T00:59:25;45.65;;;35.08;;
47812;SDS011;34221;45.296;9.516;2023-01-15T00:59:41;48.80;;;37.70;;
47812;SDS011;34221;45.296;9.516;2023-01-15T00:59:56;50.72;;;38.42;;
47812;SDS011;34221;45.296;9.516;2023-01-15T01:00:11;50.83;;;37.45;;
47812;SDS011;34221;45.296;9.516;2023-01-15T01:00:26;49.67;;;37.00;;
47812;SDS011;34221;45.296;9.516;2023-01-15T01:00:41;48.38;;;36.92;;
47812;SDS011;34221;45.296;9.516;2023-01-15T01:00:56;51.50;;;37.83;;
47812;SDS011;34221;45.296;9.516;2023-01-15T01:01:14;49.78;;;36.97;;
47812;SDS011;34221;45.296;9.516;2023-01-15T01:01:29;45.60;;;35.05;;
47812;SDS011;34221;45.296;9.516;2023-01-15T01:01:44;46.38;;;35.47;;
47812;SDS011;34221;45.296;9.516;2023-01-15T01:01:59;47.45;;;35.25;;
47812;SDS011;34221;45.296;9.516;2023-01-15T01:02:14;50.17;;;34.85;;
47812;SDS011;34221;45.296;9.516;2023-01-15T01:02:29;52.67;;;37.08;;
47812;SDS011;34221;45.296;9.516;2023-01-15T01:02:44;52.25;;;37.95;;
47812;SDS011;34221;45.296;9.516;2023-01-15T01:02:59;49.40;;;35.92;;
47812;SDS011;34221;45.296;9.516;2023-01-15T01:03:14;45.25;;;35.33;;
47812;SDS011;34221;45.296;9.516;2023-01-15T01:03:28;46.03;;;35.88;;
47812;SDS011;34221;45.296;9.516;2023-01-15T01:03:43;49.58;;;36.35;;
47812;SDS011;34221;45.296;9.516;2023-01-15T01:04:02;45.65;;;35.13;;
47812;SDS011;34221;45.296;9.516;2023-01-15T01:04:17;41.13;;;33.60;;
47812;SDS011;34221;45.296;9.516;2023-01-15T01:04:32;42.13;;;34.17;;
47812;SDS011;34221;45.296;9.516;2023-01-15T01:04:48;45.22;;;34.25;;
47812;SDS011;34221;45.296;9.516;2023-01-15T01:05:03;45.35;;;34.20;;
47812;SDS011;34221;45.296;9.516;2023-01-15T01:05:18;45.70;;;35.38;;
47812;SDS011;34221;45.296;9.516;2023-01-15T01:05:33;48.58;;;36.25;;
47812;SDS011;34221;45.296;9.516;2023-01-15T01:05:48;47.38;;;36.20;;
47812;SDS011;34221;45.296;9.516;2023-01-15T01:06:03;46.60;;;35.85;;
47812;SDS011;34221;45.296;9.516;2023-01-15T01:06:19;47.92;;;35.53;;
47812;SDS011;34221;45.296;9.516;2023-01-15T01:06:34;49.90;;;35.97;;
47812;SDS011;34221;45.296;9.516;2023-01-15T01:06:49;49.67;;;35.63;;
47812;SDS011;34221;45.296;9.516;2023-01-15T01:07:05;47.17;;;34.78;;
47812;SDS011;34221;45.296;9.516;2023-01-15T01:07:23;50.90;;;34.80;;
47812;SDS011;34221;45.296;9.516;2023-01-15T01:07:38;53.85;;;36.38;;
47812;SDS011;34221;45.296;9.516;2023-01-15T01:07:53;49.00;;;36.55;;
47812;SDS011;34221;45.296;9.516;2023-01-15T01:08:08;47.38;;;35.47;;
47812;SDS011;34221;45.296;9.516;2023-01-15T01:08:22;51.03;;;36.13;;
47812;SDS011;34221;45.296;9.516;2023-01-15T01:08:37;51.40;;;36.38;;
47812;SDS011;34221;45.296;9.516;2023-01-15T01:08:52;46.47;;;34.72;;
47812;SDS011;34221;45.296;9.516;2023-01-15T01:09:14;45.08;;;34.88;;
47812;SDS011;34221;45.296;9.516;2023-01-15T01:09:29;43.70;;;34.75;;
47812;SDS011;34221;45.296;9.516;2023-01-15T01:09:44;45.60;;;34.40;;
47812;SDS011;34221;45.296;9.516;2023-01-15T01:09:59;46.97;;;34.85;;
47812;SDS011;34221;45.296;9.516;2023-01-15T01:10:15;45.55;;;35.53;;
47812;SDS011;34221;45.296;9.516;2023-01-15T01:10:30;46.85;;;35.95;;
47812;SDS011;34221;45.296;9.516;2023-01-15T01:10:45;44.35;;;34.20;;
47812;SDS011;34221;45.296;9.516;2023-01-15T01:11:07;41.78;;;32.80;;
47812;SDS011;34221;45.296;9.516;2023-01-15T01:11:24;47.90;;;34.92;;
47812;SDS011;34221;45.296;9.516;2023-01-15T01:11:41;44.72;;;34.35;;
47812;SDS011;34221;45.296;9.516;2023-01-15T01:11:57;46.13;;;35.33;;
47812;SDS011;34221;45.296;9.516;2023-01-15T01:12:12;47.05;;;35.10;;
47812;SDS011;34221;45.296;9.516;2023-01-15T01:12:27;45.83;;;34.50;;
47812;SDS011;34221;45.296;9.516;2023-01-15T01:12:42;45.17;;;34.63;;
47812;SDS011;34221;45.296;9.516;2023-01-15T01:12:57;47.10;;;34.45;;
47812;SDS011;34221;45.296;9.516;2023-01-15T01:13:12;46.20;;;33.17;;
47812;SDS011;34221;45.296;9.516;2023-01-15T01:13:27;44.13;;;31.80;;
47812;SDS011;34221;45.296;9.516;2023-01-15T01:13:42;45.53;;;32.58;;
47812;SDS011;34221;45.296;9.516;2023-01-15T01:13:59;44.85;;;33.33;;
47812;SDS011;34221;45.296;9.516;2023-01-15T01:14:15;43.90;;;33.88;;
47812;SDS011;34221;45.296;9.516;2023-01-15T01:14:30;44.67;;;34.40;;
47812;SDS011;34221;45.296;9.516;2023-01-15T01:14:45;47.40;;;35.33;;
47812;SDS011;34221;45.296;9.516;2023-01-15T01:15:00;46.75;;;34.90;;
47812;SDS011;34221;45.296;9.516;2023-01-15T01:15:15;47.60;;;34.67;;
47812;SDS011;34221;45.296;9.516;2023-01-15T01:15:35;50.15;;;36.10;;
47812;SDS011;34221;45.296;9.516;2023-01-15T01:15:51;49.67;;;35.58;;
47812;SDS011;34221;45.296;9.516;2023-01-15T01:16:56;42.10;;;34.17;;
47812;SDS011;34221;45.296;9.516;2023-01-15T01:17:11;47.25;;;35.47;;
47812;SDS011;34221;45.296;9.516;2023-01-15T01:17:26;47.15;;;35.20;;
47812;SDS011;34221;45.296;9.516;2023-01-15T01:17:41;44.55;;;34.25;;
47812;SDS011;34221;45.296;9.516;2023-01-15T01:17:56;46.40;;;34.40;;
47812;SDS011;34221;45.296;9.516;2023-01-15T01:18:11;46.17;;;34.60;;
47812;SDS011;34221;45.296;9.516;2023-01-15T01:18:27;45.17;;;34.22;;
47812;SDS011;34221;45.296;9.516;2023-01-15T01:18:42;46.70;;;34.38;;
47812;SDS011;34221;45.296;9.516;2023-01-15T01:18:58;49.95;;;35.83;;
47812;SDS011;34221;45.296;9.516;2023-01-15T01:19:19;48.38;;;35.78;;
47812;SDS011;34221;45.296;9.516;2023-01-15T01:19:36;45.85;;;33.42;;
47812;SDS011;34221;45.296;9.516;2023-01-15T01:19:51;46.45;;;34.85;;
47812;SDS011;34221;45.296;9.516;2023-01-15T01:20:06;46.65;;;35.92;;
47812;SDS011;34221;45.296;9.516;2023-01-15T01:20:23;49.17;;;36.10;;
47812;SDS011;34221;45.296;9.516;2023-01-15T01:20:38;48.90;;;36.50;;
47812;SDS011;34221;45.296;9.516;2023-01-15T01:20:53;45.65;;;34.25;;
47812;SDS011;34221;45.296;9.516;2023-01-15T01:21:08;45.42;;;33.42;;
47812;SDS011;34221;45.296;9.516;2023-01-15T01:21:24;47.78;;;35.20;;
47812;SDS011;34221;45.296;9.516;2023-01-15T01:21:41;46.42;;;34.92;;
47812;SDS011;34221;45.296;9.516;2023-01-15T01:21:57;42.65;;;34.20;;
47812;SDS011;34221;45.296;9.516;2023-01-15T01:22:11;47.72;;;35.45;;
47812;SDS011;34221;45.296;9.516;2023-01-15T01:22:27;48.50;;;34.85;;
47812;SDS011;34221;45.296;9.516;2023-01-15T01:22:42;42.90;;;34.70;;
47812;SDS011;34221;45.296;9.516;2023-01-15T01:22:57;45.95;;;36.95;;
47812;SDS011;34221;45.296;9.516;2023-01-15T01:23:12;48.20;;;36.67;;
47812;SDS011;34221;45.296;9.516;2023-01-15T01:23:27;48.70;;;35.80;;
47812;SDS011;34221;45.296;9.516;2023-01-15T01:23:42;48.65;;;35.70;;
47812;SDS011;34221;45.296;9.516;2023-01-15T01:23:58;46.25;;;35.47;;
47812;SDS011;34221;45.296;9.516;2023-01-15T01:24:15;45.28;;;35.88;;
47812;SDS011;34221;45.296;9.516;2023-01-15T01:24:33;47.50;;;36.10;;
47812;SDS011;34221;45.296;9.516;2023-01-15T01:24:48;48.38;;;36.47;;
47812;SDS011;34221;45.296;9.516;2023-01-15T01:25:03;53.25;;;37.95;;
47812;SDS011;34221;45.296;9.516;2023-01-15T01:25:19;50.25;;;36.42;;
47812;SDS011;34221;45.296;9.516;2023-01-15T01:25:34;45.40;;;35.05;;
47812;SDS011;34221;45.296;9.516;2023-01-15T01:25:49;43.88;;;35.38;;
47812;SDS011;34221;45.296;9.516;2023-01-15T01:26:05;42.55;;;35.10;;
47812;SDS011;34221;45.296;9.516;2023-01-15T01:26:20;44.97;;;35.22;;
47812;SDS011;34221;45.296;9.516;2023-01-15T01:26:34;47.10;;;35.80;;
47812;SDS011;34221;45.296;9.516;2023-01-15T01:26:50;46.33;;;35.25;;
47812;SDS011;34221;45.296;9.516;2023-01-15T01:27:05;48.63;;;35.05;;
47812;SDS011;34221;45.296;9.516;2023-01-15T01:27:20;49.50;;;36.33;;
47812;SDS011;34221;45.296;9.516;2023-01-15T01:27:35;47.92;;;36.97;;
47812;SDS011;34221;45.296;9.516;2023-01-15T01:27:50;51.15;;;36.53;;
47812;SDS011;34221;45.296;9.516;2023-01-15T01:28:05;53.13;;;36.33;;
47812;SDS011;34221;45.296;9.516;2023-01-15T01:28:21;53.05;;;36.33;;
47812;SDS011;34221;45.296;9.516;2023-01-15T01:28:36;49.75;;;35.88;;
47812;SDS011;34221;45.296;9.516;2023-01-15T01:28:51;47.67;;;35.50;;
47812;SDS011;34221;45.296;9.516;2023-01-15T01:29:07;48.45;;;36.08;;
47812;SDS011;34221;45.296;9.516;2023-01-15T01:29:25;51.88;;;36.50;;
47812;SDS011;34221;45.296;9.516;2023-01-15T01:29:40;54.37;;;35.67;;
47812;SDS011;34221;45.296;9.516;2023-01-15T01:29:55;49.17;;;35.17;;
47812;SDS011;34221;45.296;9.516;2023-01-15T01:30:10;44.70;;;35.10;;
47812;SDS011;34221;45.296;9.516;2023-01-15T01:30:27;49.72;;;35.20;;
47812;SDS011;34221;45.296;9.516;2023-01-15T01:30:43;51.75;;;34.63;;
47812;SDS011;34221;45.296;9.516;2023-01-15T01:30:58;45.95;;;34.25;;
47812;SDS011;34221;45.296;9.516;2023-01-15T01:31:13;45.20;;;35.05;;
47812;SDS011;34221;45.296;9.516;2023-01-15T01:31:28;44.63;;;35.05;;
47812;SDS011;34221;45.296;9.516;2023-01-15T01:31:43;43.05;;;34.75;;
47812;SDS011;34221;45.296;9.516;2023-01-15T01:31:58;46.38;;;36.25;;
47812;SDS011;34221;45.296;9.516;2023-01-15T01:32:13;49.83;;;37.90;;
47812;SDS011;34221;45.296;9.516;2023-01-15T01:32:28;49.28;;;37.15;;
47812;SDS011;34221;45.296;9.516;2023-01-15T01:32:44;48.75;;;36.55;;
47812;SDS011;34221;45.296;9.516;2023-01-15T01:32:59;47.08;;;35.80;;
47812;SDS011;34221;45.296;9.516;2023-01-15T01:33:14;49.25;;;35.97;;
47812;SDS011;34221;45.296;9.516;2023-01-15T01:33:30;51.13;;;36.70;;
47812;SDS011;34221;45.296;9.516;2023-01-15T01:33:53;47.08;;;35.65;;
47812;SDS011;34221;45.296;9.516;2023-01-15T01:34:10;48.05;;;35.42;;
47812;SDS011;34221;45.296;9.516;2023-01-15T01:34:26;49.95;;;36.17;;
47812;SDS011;34221;45.296;9.516;2023-01-15T01:34:41;47.67;;;36.85;;